sensor_id;sensor_type;location;lat;lon;timestamp;temperature;humidity
31809;DHT22;18379;48.208;-1.518;2023-05-07T00:03:36;15.50;99.90
31809;DHT22;18379;48.208;-1.518;2023-05-07T00:08:38;15.50;99.90
31809;DHT22;18379;48.208;-1.518;2023-05-07T00:13:39;15.40;99.90
31809;DHT22;18379;48.208;-1.518;2023-05-07T00:18:40;15.30;99.90
31809;DHT22;18379;48.208;-1.518;2023-05-07T00:23:41;15.30;99.90
31809;DHT22;18379;48.208;-1.518;2023-05-07T00:28:41;15.20;99.90
31809;DHT22;18379;48.208;-1.518;2023-05-07T00:33:42;15.20;99.90
31809;DHT22;18379;48.208;-1.518;2023-05-07T00:38:43;15.30;99.90
31809;DHT22;18379;48.208;-1.518;2023-05-07T00:43:44;15.30;99.90
31809;DHT22;18379;48.208;-1.518;2023-05-07T00:48:45;15.30;99.90
31809;DHT22;18379;48.208;-1.518;2023-05-07T00:53:46;15.40;99.90
31809;DHT22;18379;48.208;-1.518;2023-05-07T00:58:47;15.40;99.90
31809;DHT22;18379;48.208;-1.518;2023-05-07T01:03:48;15.40;99.90
31809;DHT22;18379;48.208;-1.518;2023-05-07T01:08:49;15.60;99.90
31809;DHT22;18379;48.208;-1.518;2023-05-07T01:13:51;15.60;99.90
31809;DHT22;18379;48.208;-1.518;2023-05-07T01:18:52;15.50;99.90
31809;DHT22;18379;48.208;-1.518;2023-05-07T01:23:54;15.50;99.90
31809;DHT22;18379;48.208;-1.518;2023-05-07T01:28:55;15.40;99.90
31809;DHT22;18379;48.208;-1.518;2023-05-07T01:33:56;15.30;99.90
31809;DHT22;18379;48.208;-1.518;2023-05-07T01:38:59;15.20;99.90
31809;DHT22;18379;48.208;-1.518;2023-05-07T01:44:00;15.10;99.90
31809;DHT22;18379;48.208;-1.518;2023-05-07T01:49:01;15.10;99.90
31809;DHT22;18379;48.208;-1.518;2023-05-07T01:54:02;15.00;99.90
31809;DHT22;18379;48.208;-1.518;2023-05-07T01:59:03;15.00;99.90
31809;DHT22;18379;48.208;-1.518;2023-05-07T02:04:04;15.20;99.90
31809;DHT22;18379;48.208;-1.518;2023-05-07T02:09:05;15.30;99.90
31809;DHT22;18379;48.208;-1.518;2023-05-07T02:14:06;15.40;99.90
31809;DHT22;18379;48.208;-1.518;2023-05-07T02:19:07;15.50;99.90
31809;DHT22;18379;48.208;-1.518;2023-05-07T02:24:08;15.60;99.90
31809;DHT22;18379;48.208;-1.518;2023-05-07T02:29:11;15.50;99.90
31809;DHT22;18379;48.208;-1.518;2023-05-07T02:34:12;15.40;99.90
31809;DHT22;18379;48.208;-1.518;2023-05-07T02:39:13;15.30;99.90
31809;DHT22;18379;48.208;-1.518;2023-05-07T02:44:16;15.20;99.90
31809;DHT22;18379;48.208;-1.518;2023-05-07T02:49:16;15.20;99.90
31809;DHT22;18379;48.208;-1.518;2023-05-07T02:54:17;15.10;99.90
31809;DHT22;18379;48.208;-1.518;2023-05-07T02:59:18;15.20;99.90
31809;DHT22;18379;48.208;-1.518;2023-05-07T03:04:19;15.20;99.90
31809;DHT22;18379;48.208;-1.518;2023-05-07T03:09:19;15.20;99.90
31809;DHT22;18379;48.208;-1.518;2023-05-07T03:14:20;15.30;99.90
31809;DHT22;18379;48.208;-1.518;2023-05-07T03:19:21;15.20;99.90
31809;DHT22;18379;48.208;-1.518;2023-05-07T03:24:22;15.20;99.90
31809;DHT22;18379;48.208;-1.518;2023-05-07T03:29:23;15.20;99.90
31809;DHT22;18379;48.208;-1.518;2023-05-07T03:34:24;15.40;99.90
31809;DHT22;18379;48.208;-1.518;2023-05-07T03:39:24;15.30;99.90
31809;DHT22;18379;48.208;-1.518;2023-05-07T03:44:25;15.30;99.90
31809;DHT22;18379;48.208;-1.518;2023-05-07T03:49:26;15.40;99.90
31809;DHT22;18379;48.208;-1.518;2023-05-07T03:54:27;15.30;99.90
31809;DHT22;18379;48.208;-1.518;2023-05-07T03:59:27;15.30;99.90
31809;DHT22;18379;48.208;-1.518;2023-05-07T04:04:28;15.20;99.90
31809;DHT22;18379;48.208;-1.518;2023-05-07T04:09:33;15.40;99.90
31809;DHT22;18379;48.208;-1.518;2023-05-07T04:14:33;15.30;99.90
31809;DHT22;18379;48.208;-1.518;2023-05-07T04:19:34;15.30;99.90
31809;DHT22;18379;48.208;-1.518;2023-05-07T04:24:35;15.30;99.90
31809;DHT22;18379;48.208;-1.518;2023-05-07T04:29:36;15.20;99.90
31809;DHT22;18379;48.208;-1.518;2023-05-07T04:34:37;15.20;99.90
31809;DHT22;18379;48.208;-1.518;2023-05-07T04:39:38;15.20;99.90
31809;DHT22;18379;48.208;-1.518;2023-05-07T04:44:38;15.20;99.90
31809;DHT22;18379;48.208;-1.518;2023-05-07T04:49:39;15.30;99.90
31809;DHT22;18379;48.208;-1.518;2023-05-07T04:54:41;15.30;99.90
31809;DHT22;18379;48.208;-1.518;2023-05-07T04:59:42;15.30;99.90
31809;DHT22;18379;48.208;-1.518;2023-05-07T05:04:42;15.30;99.90
31809;DHT22;18379;48.208;-1.518;2023-05-07T05:09:43;15.30;99.90
31809;DHT22;18379;48.208;-1.518;2023-05-07T05:14:50;15.30;99.90
31809;DHT22;18379;48.208;-1.518;2023-05-07T05:19:57;15.20;99.90
31809;DHT22;18379;48.208;-1.518;2023-05-07T05:25:03;15.30;99.90
31809;DHT22;18379;48.208;-1.518;2023-05-07T05:30:05;15.30;99.90
31809;DHT22;18379;48.208;-1.518;2023-05-07T05:35:07;15.30;99.90
31809;DHT22;18379;48.208;-1.518;2023-05-07T05:40:14;15.30;99.90
31809;DHT22;18379;48.208;-1.518;2023-05-07T05:45:15;15.30;99.90
31809;DHT22;18379;48.208;-1.518;2023-05-07T05:50:19;15.00;99.90
31809;DHT22;18379;48.208;-1.518;2023-05-07T05:55:26;15.00;99.90
31809;DHT22;18379;48.208;-1.518;2023-05-07T06:00:33;14.90;99.90
31809;DHT22;18379;48.208;-1.518;2023-05-07T06:05:41;14.80;99.90
31809;DHT22;18379;48.208;-1.518;2023-05-07T06:10:44;14.60;99.90
31809;DHT22;18379;48.208;-1.518;2023-05-07T06:15:45;14.70;99.90
31809;DHT22;18379;48.208;-1.518;2023-05-07T06:20:49;14.60;99.90
31809;DHT22;18379;48.208;-1.518;2023-05-07T06:25:51;14.50;99.90
31809;DHT22;18379;48.208;-1.518;2023-05-07T06:30:52;14.60;99.90
31809;DHT22;18379;48.208;-1.518;2023-05-07T06:35:53;14.60;99.90
31809;DHT22;18379;48.208;-1.518;2023-05-07T06:40:55;14.50;99.90
31809;DHT22;18379;48.208;-1.518;2023-05-07T06:45:58;14.60;99.90
31809;DHT22;18379;48.208;-1.518;2023-05-07T06:51:04;14.70;99.90
31809;DHT22;18379;48.208;-1.518;2023-05-07T06:56:06;14.80;99.90
31809;DHT22;18379;48.208;-1.518;2023-05-07T07:01:09;14.50;99.90
31809;DHT22;18379;48.208;-1.518;2023-05-07T07:06:15;14.40;99.90
31809;DHT22;18379;48.208;-1.518;2023-05-07T07:11:18;14.40;99.90
31809;DHT22;18379;48.208;-1.518;2023-05-07T07:16:21;14.50;99.90
31809;DHT22;18379;48.208;-1.518;2023-05-07T07:21:27;14.50;99.90
31809;DHT22;18379;48.208;-1.518;2023-05-07T07:26:31;14.20;99.90
31809;DHT22;18379;48.208;-1.518;2023-05-07T07:31:34;14.30;99.90
31809;DHT22;18379;48.208;-1.518;2023-05-07T07:36:37;14.60;99.90
31809;DHT22;18379;48.208;-1.518;2023-05-07T07:41:39;15.10;99.90
31809;DHT22;18379;48.208;-1.518;2023-05-07T07:46:46;15.10;99.90
31809;DHT22;18379;48.208;-1.518;2023-05-07T07:51:47;14.90;99.90
31809;DHT22;18379;48.208;-1.518;2023-05-07T07:56:48;14.60;99.90
31809;DHT22;18379;48.208;-1.518;2023-05-07T08:01:49;14.90;99.90
31809;DHT22;18379;48.208;-1.518;2023-05-07T08:06:50;15.00;99.90
31809;DHT22;18379;48.208;-1.518;2023-05-07T08:11:53;15.10;99.90
31809;DHT22;18379;48.208;-1.518;2023-05-07T08:16:59;15.30;99.90
31809;DHT22;18379;48.208;-1.518;2023-05-07T08:22:02;15.60;99.90
31809;DHT22;18379;48.208;-1.518;2023-05-07T08:27:05;15.50;99.90
31809;DHT22;18379;48.208;-1.518;2023-05-07T08:32:06;15.60;99.90
31809;DHT22;18379;48.208;-1.518;2023-05-07T08:37:10;16.00;99.90
31809;DHT22;18379;48.208;-1.518;2023-05-07T08:42:17;16.20;99.90
31809;DHT22;18379;48.208;-1.518;2023-05-07T08:47:22;16.30;99.90
31809;DHT22;18379;48.208;-1.518;2023-05-07T08:52:23;16.50;99.90
31809;DHT22;18379;48.208;-1.518;2023-05-07T08:57:26;16.00;99.90
31809;DHT22;18379;48.208;-1.518;2023-05-07T09:02:27;15.80;99.90
31809;DHT22;18379;48.208;-1.518;2023-05-07T09:07:28;15.80;99.90
31809;DHT22;18379;48.208;-1.518;2023-05-07T09:12:32;16.20;99.90
31809;DHT22;18379;48.208;-1.518;2023-05-07T09:17:35;16.00;99.90
31809;DHT22;18379;48.208;-1.518;2023-05-07T09:22:44;16.30;99.90
31809;DHT22;18379;48.208;-1.518;2023-05-07T09:27:48;16.10;99.90
31809;DHT22;18379;48.208;-1.518;2023-05-07T09:32:51;16.30;99.90
31809;DHT22;18379;48.208;-1.518;2023-05-07T09:38:00;16.70;99.90
31809;DHT22;18379;48.208;-1.518;2023-05-07T09:43:13;17.00;99.90
31809;DHT22;18379;48.208;-1.518;2023-05-07T09:48:16;16.90;99.90
31809;DHT22;18379;48.208;-1.518;2023-05-07T09:53:18;17.00;99.90
31809;DHT22;18379;48.208;-1.518;2023-05-07T09:58:25;17.10;99.90
31809;DHT22;18379;48.208;-1.518;2023-05-07T10:03:29;16.90;99.90
31809;DHT22;18379;48.208;-1.518;2023-05-07T10:08:32;16.80;99.90
31809;DHT22;18379;48.208;-1.518;2023-05-07T10:13:42;16.80;99.90
31809;DHT22;18379;48.208;-1.518;2023-05-07T10:19:03;16.90;99.90
31809;DHT22;18379;48.208;-1.518;2023-05-07T10:24:11;16.70;99.90
31809;DHT22;18379;48.208;-1.518;2023-05-07T10:35:23;17.10;99.90
31809;DHT22;18379;48.208;-1.518;2023-05-07T10:40:25;16.80;99.90
31809;DHT22;18379;48.208;-1.518;2023-05-07T10:45:32;16.80;99.90
31809;DHT22;18379;48.208;-1.518;2023-05-07T10:50:34;16.90;99.90
31809;DHT22;18379;48.208;-1.518;2023-05-07T10:55:34;17.10;99.90
31809;DHT22;18379;48.208;-1.518;2023-05-07T11:05:36;16.60;99.90
31809;DHT22;18379;48.208;-1.518;2023-05-07T11:10:55;16.50;99.90
31809;DHT22;18379;48.208;-1.518;2023-05-07T11:15:56;16.70;99.90
31809;DHT22;18379;48.208;-1.518;2023-05-07T11:21:09;17.40;99.90
31809;DHT22;18379;48.208;-1.518;2023-05-07T11:26:13;17.10;99.90
31809;DHT22;18379;48.208;-1.518;2023-05-07T11:31:21;17.20;99.90
31809;DHT22;18379;48.208;-1.518;2023-05-07T11:36:24;17.40;99.90
31809;DHT22;18379;48.208;-1.518;2023-05-07T11:41:36;17.40;99.90
31809;DHT22;18379;48.208;-1.518;2023-05-07T11:46:45;17.60;99.90
31809;DHT22;18379;48.208;-1.518;2023-05-07T11:51:50;17.30;99.90
31809;DHT22;18379;48.208;-1.518;2023-05-07T11:56:51;17.20;99.90
31809;DHT22;18379;48.208;-1.518;2023-05-07T12:01:52;16.70;99.90
31809;DHT22;18379;48.208;-1.518;2023-05-07T12:06:55;17.00;99.90
31809;DHT22;18379;48.208;-1.518;2023-05-07T12:11:56;16.90;99.90
31809;DHT22;18379;48.208;-1.518;2023-05-07T12:16:57;17.00;99.90
31809;DHT22;18379;48.208;-1.518;2023-05-07T12:21:58;17.20;99.90
31809;DHT22;18379;48.208;-1.518;2023-05-07T12:27:00;17.70;99.90
31809;DHT22;18379;48.208;-1.518;2023-05-07T12:32:01;17.90;99.90
31809;DHT22;18379;48.208;-1.518;2023-05-07T12:37:02;17.50;99.90
31809;DHT22;18379;48.208;-1.518;2023-05-07T12:42:04;17.70;99.90
31809;DHT22;18379;48.208;-1.518;2023-05-07T12:47:05;17.90;99.90
31809;DHT22;18379;48.208;-1.518;2023-05-07T12:52:06;17.90;99.90
31809;DHT22;18379;48.208;-1.518;2023-05-07T12:57:08;18.50;99.90
31809;DHT22;18379;48.208;-1.518;2023-05-07T13:02:09;18.90;99.90
31809;DHT22;18379;48.208;-1.518;2023-05-07T13:07:10;19.10;99.90
31809;DHT22;18379;48.208;-1.518;2023-05-07T13:12:11;18.90;99.90
31809;DHT22;18379;48.208;-1.518;2023-05-07T13:17:12;18.40;99.90
31809;DHT22;18379;48.208;-1.518;2023-05-07T13:22:13;18.80;99.90
31809;DHT22;18379;48.208;-1.518;2023-05-07T13:27:14;19.70;99.90
31809;DHT22;18379;48.208;-1.518;2023-05-07T13:32:14;19.40;99.90
31809;DHT22;18379;48.208;-1.518;2023-05-07T13:37:15;19.30;99.90
31809;DHT22;18379;48.208;-1.518;2023-05-07T13:42:16;19.20;99.90
31809;DHT22;18379;48.208;-1.518;2023-05-07T13:47:17;19.70;99.90
31809;DHT22;18379;48.208;-1.518;2023-05-07T13:52:18;19.40;99.90
31809;DHT22;18379;48.208;-1.518;2023-05-07T13:57:19;19.00;99.90
31809;DHT22;18379;48.208;-1.518;2023-05-07T14:02:20;19.00;99.90
31809;DHT22;18379;48.208;-1.518;2023-05-07T14:07:21;19.30;99.90
31809;DHT22;18379;48.208;-1.518;2023-05-07T14:12:22;19.90;99.90
31809;DHT22;18379;48.208;-1.518;2023-05-07T14:17:22;19.40;99.90
31809;DHT22;18379;48.208;-1.518;2023-05-07T14:22:25;19.40;99.90
31809;DHT22;18379;48.208;-1.518;2023-05-07T14:27:26;19.60;99.90
31809;DHT22;18379;48.208;-1.518;2023-05-07T14:32:27;19.10;99.90
31809;DHT22;18379;48.208;-1.518;2023-05-07T14:37:28;18.90;99.90
31809;DHT22;18379;48.208;-1.518;2023-05-07T14:42:35;18.90;99.90
31809;DHT22;18379;48.208;-1.518;2023-05-07T14:47:43;18.80;99.90
31809;DHT22;18379;48.208;-1.518;2023-05-07T14:52:49;18.70;99.90
31809;DHT22;18379;48.208;-1.518;2023-05-07T14:57:50;18.60;99.90
31809;DHT22;18379;48.208;-1.518;2023-05-07T15:02:51;18.80;99.90
31809;DHT22;18379;48.208;-1.518;2023-05-07T15:07:52;19.20;99.90
31809;DHT22;18379;48.208;-1.518;2023-05-07T15:12:53;19.00;99.90
31809;DHT22;18379;48.208;-1.518;2023-05-07T15:17:54;18.80;99.90
31809;DHT22;18379;48.208;-1.518;2023-05-07T15:22:55;19.30;99.90
31809;DHT22;18379;48.208;-1.518;2023-05-07T15:27:56;19.50;99.90
31809;DHT22;18379;48.208;-1.518;2023-05-07T15:32:57;19.40;99.90
31809;DHT22;18379;48.208;-1.518;2023-05-07T15:37:58;21.00;99.90
31809;DHT22;18379;48.208;-1.518;2023-05-07T15:42:59;21.20;99.90
31809;DHT22;18379;48.208;-1.518;2023-05-07T15:48:00;21.10;99.90
31809;DHT22;18379;48.208;-1.518;2023-05-07T15:53:01;19.80;99.90
31809;DHT22;18379;48.208;-1.518;2023-05-07T15:58:03;19.00;99.90
31809;DHT22;18379;48.208;-1.518;2023-05-07T16:03:06;18.50;99.90
31809;DHT22;18379;48.208;-1.518;2023-05-07T16:08:07;18.20;99.90
31809;DHT22;18379;48.208;-1.518;2023-05-07T16:13:08;18.30;99.90
31809;DHT22;18379;48.208;-1.518;2023-05-07T16:18:12;18.60;99.90
31809;DHT22;18379;48.208;-1.518;2023-05-07T16:23:16;18.80;99.90
31809;DHT22;18379;48.208;-1.518;2023-05-07T16:28:17;19.50;99.90
31809;DHT22;18379;48.208;-1.518;2023-05-07T16:33:17;20.20;99.90
31809;DHT22;18379;48.208;-1.518;2023-05-07T16:38:19;20.40;99.90
31809;DHT22;18379;48.208;-1.518;2023-05-07T16:43:20;20.30;99.90
31809;DHT22;18379;48.208;-1.518;2023-05-07T16:48:21;19.40;99.90
31809;DHT22;18379;48.208;-1.518;2023-05-07T16:53:21;19.90;99.90
31809;DHT22;18379;48.208;-1.518;2023-05-07T16:58:22;20.00;99.90
31809;DHT22;18379;48.208;-1.518;2023-05-07T17:03:23;20.20;99.90
31809;DHT22;18379;48.208;-1.518;2023-05-07T17:08:24;20.10;99.90
31809;DHT22;18379;48.208;-1.518;2023-05-07T17:13:25;19.40;99.90
31809;DHT22;18379;48.208;-1.518;2023-05-07T17:18:26;19.20;99.90
31809;DHT22;18379;48.208;-1.518;2023-05-07T17:23:27;19.40;99.90
31809;DHT22;18379;48.208;-1.518;2023-05-07T17:28:28;20.10;99.90
31809;DHT22;18379;48.208;-1.518;2023-05-07T17:33:29;19.60;99.90
31809;DHT22;18379;48.208;-1.518;2023-05-07T17:38:31;20.10;99.90
31809;DHT22;18379;48.208;-1.518;2023-05-07T17:43:31;19.90;99.90
31809;DHT22;18379;48.208;-1.518;2023-05-07T17:48:32;20.10;99.90
31809;DHT22;18379;48.208;-1.518;2023-05-07T17:53:33;20.10;99.90
31809;DHT22;18379;48.208;-1.518;2023-05-07T17:58:34;18.50;99.90
31809;DHT22;18379;48.208;-1.518;2023-05-07T18:03:34;17.80;99.90
31809;DHT22;18379;48.208;-1.518;2023-05-07T18:08:36;17.70;99.90
31809;DHT22;18379;48.208;-1.518;2023-05-07T18:13:37;17.20;99.90
31809;DHT22;18379;48.208;-1.518;2023-05-07T18:18:39;16.80;99.90
31809;DHT22;18379;48.208;-1.518;2023-05-07T18:23:40;16.50;99.90
31809;DHT22;18379;48.208;-1.518;2023-05-07T18:28:42;16.00;99.90
31809;DHT22;18379;48.208;-1.518;2023-05-07T18:33:43;15.80;99.90
31809;DHT22;18379;48.208;-1.518;2023-05-07T18:38:44;15.60;99.90
31809;DHT22;18379;48.208;-1.518;2023-05-07T18:43:46;15.60;99.90
31809;DHT22;18379;48.208;-1.518;2023-05-07T18:48:50;15.50;99.90
31809;DHT22;18379;48.208;-1.518;2023-05-07T18:53:53;15.60;99.90
31809;DHT22;18379;48.208;-1.518;2023-05-07T18:58:54;15.50;99.90
31809;DHT22;18379;48.208;-1.518;2023-05-07T19:03:56;15.40;99.90
31809;DHT22;18379;48.208;-1.518;2023-05-07T19:08:57;15.30;99.90
31809;DHT22;18379;48.208;-1.518;2023-05-07T19:13:59;15.20;99.90
31809;DHT22;18379;48.208;-1.518;2023-05-07T19:19:00;14.90;99.90
31809;DHT22;18379;48.208;-1.518;2023-05-07T19:24:00;14.70;99.90
31809;DHT22;18379;48.208;-1.518;2023-05-07T19:29:01;14.60;99.90
31809;DHT22;18379;48.208;-1.518;2023-05-07T19:34:02;14.40;99.90
31809;DHT22;18379;48.208;-1.518;2023-05-07T19:39:03;14.40;99.90
31809;DHT22;18379;48.208;-1.518;2023-05-07T19:44:04;14.30;99.90
31809;DHT22;18379;48.208;-1.518;2023-05-07T19:49:05;14.10;99.90
31809;DHT22;18379;48.208;-1.518;2023-05-07T19:54:06;14.10;99.90
31809;DHT22;18379;48.208;-1.518;2023-05-07T19:59:07;14.10;99.90
31809;DHT22;18379;48.208;-1.518;2023-05-07T20:04:08;13.90;99.90
31809;DHT22;18379;48.208;-1.518;2023-05-07T20:09:09;13.80;99.90
31809;DHT22;18379;48.208;-1.518;2023-05-07T20:14:12;13.60;99.90
31809;DHT22;18379;48.208;-1.518;2023-05-07T20:19:12;13.60;99.90
31809;DHT22;18379;48.208;-1.518;2023-05-07T20:24:13;13.50;99.90
31809;DHT22;18379;48.208;-1.518;2023-05-07T20:29:14;13.30;99.90
31809;DHT22;18379;48.208;-1.518;2023-05-07T20:34:15;13.30;99.90
31809;DHT22;18379;48.208;-1.518;2023-05-07T20:39:16;13.20;99.90
31809;DHT22;18379;48.208;-1.518;2023-05-07T20:44:16;13.30;99.90
31809;DHT22;18379;48.208;-1.518;2023-05-07T20:49:18;13.30;99.90
31809;DHT22;18379;48.208;-1.518;2023-05-07T20:54:20;13.30;99.90
31809;DHT22;18379;48.208;-1.518;2023-05-07T20:59:23;13.40;99.90
31809;DHT22;18379;48.208;-1.518;2023-05-07T21:04:24;13.40;99.90
31809;DHT22;18379;48.208;-1.518;2023-05-07T21:09:25;13.30;99.90
31809;DHT22;18379;48.208;-1.518;2023-05-07T21:14:26;13.20;99.90
31809;DHT22;18379;48.208;-1.518;2023-05-07T21:19:26;13.20;99.90
31809;DHT22;18379;48.208;-1.518;2023-05-07T21:24:27;13.10;99.90
31809;DHT22;18379;48.208;-1.518;2023-05-07T21:29:28;13.00;99.90
31809;DHT22;18379;48.208;-1.518;2023-05-07T21:34:29;13.10;99.90
31809;DHT22;18379;48.208;-1.518;2023-05-07T21:39:30;13.20;99.90
31809;DHT22;18379;48.208;-1.518;2023-05-07T21:44:31;13.20;99.90
31809;DHT22;18379;48.208;-1.518;2023-05-07T21:49:31;13.20;99.90
31809;DHT22;18379;48.208;-1.518;2023-05-07T21:54:32;13.50;99.90
31809;DHT22;18379;48.208;-1.518;2023-05-07T21:59:33;13.70;99.90
31809;DHT22;18379;48.208;-1.518;2023-05-07T22:04:34;13.80;99.90
31809;DHT22;18379;48.208;-1.518;2023-05-07T22:09:34;14.00;99.90
31809;DHT22;18379;48.208;-1.518;2023-05-07T22:14:35;14.00;99.90
31809;DHT22;18379;48.208;-1.518;2023-05-07T22:19:36;13.80;99.90
31809;DHT22;18379;48.208;-1.518;2023-05-07T22:24:37;13.90;99.90
31809;DHT22;18379;48.208;-1.518;2023-05-07T22:29:37;13.80;99.90
31809;DHT22;18379;48.208;-1.518;2023-05-07T22:34:38;13.70;99.90
31809;DHT22;18379;48.208;-1.518;2023-05-07T22:39:39;13.60;99.90
31809;DHT22;18379;48.208;-1.518;2023-05-07T22:44:41;13.50;99.90
31809;DHT22;18379;48.208;-1.518;2023-05-07T22:49:42;13.40;99.90
31809;DHT22;18379;48.208;-1.518;2023-05-07T22:54:43;13.30;99.90
31809;DHT22;18379;48.208;-1.518;2023-05-07T22:59:44;13.30;99.90
31809;DHT22;18379;48.208;-1.518;2023-05-07T23:04:45;13.20;99.90
31809;DHT22;18379;48.208;-1.518;2023-05-07T23:09:45;13.20;99.90
31809;DHT22;18379;48.208;-1.518;2023-05-07T23:14:46;13.10;99.90
31809;DHT22;18379;48.208;-1.518;2023-05-07T23:19:47;13.00;99.90
31809;DHT22;18379;48.208;-1.518;2023-05-07T23:24:48;12.90;99.90
31809;DHT22;18379;48.208;-1.518;2023-05-07T23:29:49;12.90;99.90
31809;DHT22;18379;48.208;-1.518;2023-05-07T23:34:50;13.00;99.90
31809;DHT22;18379;48.208;-1.518;2023-05-07T23:39:53;13.10;99.90
31809;DHT22;18379;48.208;-1.518;2023-05-07T23:44:54;13.10;99.90
31809;DHT22;18379;48.208;-1.518;2023-05-07T23:49:55;13.10;99.90
31809;DHT22;18379;48.208;-1.518;2023-05-07T23:54:56;13.20;99.90
31809;DHT22;18379;48.208;-1.518;2023-05-07T23:59:56;13.50;99.90
